Saturday, October 20, 2018, 7:31 AM EDT
Back to Local

K12N, Aeroflex-andover Airport

Location: Newton, NJ, United States Lat: 41.017
Local Time: 7:31 AM EDT (11:31 GMT) Lon: -74.733
Time Zone: US/Eastern Elev: 583 ft

Show me the last for .
Show Decoded

2018-10-20 06:54 METAR K12N 201054Z AUTO 20005KT 11/09 A2975 RMK AO1 SLP074 T01060089 =
2018-10-20 05:54 METAR K12N 200954Z AUTO VRB04KT 10/09 A2973 RMK AO1 SLP070 T01000089 =
2018-10-20 04:54 METAR K12N 200854Z AUTO VRB03KT 10/09 A2975 RMK AO1 SLP076 60002 T01000089 56030
                 =
2018-10-20 03:54 METAR K12N 200754Z AUTO 00000KT 10/08 A2977 RMK AO1 SLP082 P0001 T01000083 =
2018-10-20 02:54 METAR K12N 200654Z AUTO 00000KT 09/08 A2980 RMK AO1 SLP093 P0001 T00940083 =
2018-10-20 01:54 METAR K12N 200554Z AUTO 00000KT 09/08 A2984 RMK AO1 SLP107 P0003 60003 T00940083
                 10117 20094 56024 =
2018-10-20 00:54 METAR K12N 200454Z AUTO 00000KT 11/06 A2986 RMK AO1 SLP112 T01110061 401441011 =
2018-10-19 23:54 METAR K12N 200354Z AUTO 20003KT 11/06 A2989 RMK AO1 SLP121 T01110056 =
2018-10-19 22:54 METAR K12N 200254Z AUTO VRB05KT 12/05 A2992 RMK AO1 SLP133 T01170050 58026 =
2018-10-19 21:54 METAR K12N 200154Z AUTO VRB04KT 12/05 A2995 RMK AO1 SLP145 T01170050 =
2018-10-19 20:54 METAR K12N 200054Z AUTO VRB04KT 11/04 A2998 RMK AO1 SLP156 T01110044 =
2018-10-19 19:54 METAR K12N 192354Z AUTO 19003KT 10/03 A2999 RMK AO1 SLP163 T01000033 10144 20078
                 58022 =
2018-10-19 18:54 METAR K12N 192254Z AUTO 00000KT 10/03 A3003 RMK AO1 SLP175 T01000028 =
2018-10-19 17:54 METAR K12N 192154Z AUTO 00000KT 11/02 A3004 RMK AO1 SLP179 T01110022 =
2018-10-19 16:54 METAR K12N 192054Z AUTO 20009G15KT 13/00 A3006 RMK AO1 SLP184 T01280000 56028 =
2018-10-19 15:54 METAR K12N 191954Z AUTO 20006G15KT 14/M01 A3008 RMK AO1 SLP190 T01391006 =
2018-10-19 14:54 METAR K12N 191854Z AUTO 20012G16KT 140V230 14/M01 A3010 RMK AO1 SLP197 T01391006
                 =
2018-10-19 13:54 METAR K12N 191754Z AUTO 21007G14KT 180V290 13/00 A3014 RMK AO1 SLP213 T01330000
                 10139 20006 58038 =
2018-10-19 12:54 METAR K12N 191654Z AUTO 20008KT 13/01 A3019 RMK AO1 SLP229 T01280006 =
2018-10-19 11:54 METAR K12N 191554Z AUTO VRB06KT 11/00 A3023 RMK AO1 SLP241 T01110000 =
2018-10-19 10:54 METAR K12N 191454Z AUTO 24009G15KT 210V280 09/00 A3026 RMK AO1 SLP253 T00940000
                 58016 =
2018-10-19 09:54 METAR K12N 191354Z AUTO VRB05KT 07/01 A3028 RMK AO1 SLP262 T00720011 =
2018-10-19 08:54 METAR K12N 191254Z AUTO 15003KT 03/01 A3029 RMK AO1 SLP267 T00280011 =
2018-10-19 07:54 METAR K12N 191154Z AUTO 17003KT 01/M01 A3031 RMK AO1 SLP272 T00061006 10006
                 21011 53002 =

Support USWX by starting your Amazon purchase here.